H.kanter — ESUB — position and weather

sailwx.info

Track history (hours):
 
Tides and Currents Weather Stations Pressure Air Temp Water Temp Dewpoint Dewpoint Depression Visibility Wind Speed Wind Dir Waves Ship Positions

H.kanter

Last reported at 2015-Feb-14 00:25 UTC. Time now 2015-Mar-04 07:02 UTC.
Position N 59°31' E 024°58'.
Warning: this ship's position is 18 days out of date.

Length 33 m; draft 4.7 m.

Type: Tug. MMSI: 276504000.

Date/timePositionNaut miles runAvg speedWind from/ knotsBaromVisibWave heightAir tempDewpointWater temp
2015-Feb-14 00:25N 59°31' E 024°58'1 0.6
2015-Feb-13 23:19N 59°30' E 024°58'1 1.3
2015-Feb-13 22:28N 59°31' E 024°58'  
2015-Feb-09 10:33N 59°34' E 024°53'10 9.7
2015-Feb-09 09:33N 59°38' E 024°35'8 1.1
2015-Feb-09 02:32N 59°30' E 024°31'8 8.1
2015-Feb-09 01:33N 59°29' E 024°46'2 2.1
2015-Feb-09 00:34N 59°27' E 024°46'0 0.0
2015-Feb-08 23:33N 59°27' E 024°46'0 0.0
2015-Feb-08 22:33N 59°27' E 024°46'0 0.0
2015-Feb-08 21:34N 59°27' E 024°46'0 0.0
2015-Feb-08 20:33N 59°27' E 024°46'0 0.0
2015-Feb-08 19:33N 59°27' E 024°46'0 0.0
2015-Feb-08 18:33N 59°27' E 024°46'0 0.0
2015-Feb-08 17:34N 59°27' E 024°46'0 0.1
2015-Feb-08 16:34N 59°27' E 024°46'0 0.3
2015-Feb-08 15:33N 59°27' E 024°47'0 0.3
2015-Feb-08 14:33N 59°27' E 024°46'0 0.2
2015-Feb-08 13:33N 59°27' E 024°46'0 0.3
2015-Feb-08 12:33N 59°27' E 024°46'0 0.0
2015-Feb-08 11:33N 59°27' E 024°46'0 0.2
2015-Feb-08 10:34N 59°27' E 024°46'0 0.2
2015-Feb-08 09:33N 59°27' E 024°46'0 0.1
2015-Feb-08 08:33N 59°27' E 024°46'0 0.1
2015-Feb-08 07:33N 59°27' E 024°46'0 0.1
2015-Feb-08 06:33N 59°27' E 024°46'0 0.0
2015-Feb-08 05:34N 59°27' E 024°46'0 0.0
2015-Feb-08 04:33N 59°27' E 024°46'0 0.0
2015-Feb-08 03:33N 59°27' E 024°46'0 0.0
2015-Feb-08 02:34N 59°27' E 024°46'0 0.0
2015-Feb-08 01:34N 59°27' E 024°46'0 0.0
2015-Feb-08 00:33N 59°27' E 024°46'0 0.0
2015-Feb-07 23:33N 59°27' E 024°46'0 0.0
2015-Feb-07 22:34N 59°27' E 024°46'0 0.0
2015-Feb-07 21:33N 59°27' E 024°46'0 0.0
2015-Feb-07 20:34N 59°27' E 024°46'5 4.8
2015-Feb-07 19:33N 59°29' E 024°38'2 1.7
2015-Feb-07 18:33N 59°28' E 024°39'1 0.8
2015-Feb-07 17:33N 59°27' E 024°38'6 5.5
2015-Feb-07 16:33N 59°31' E 024°45'5 4.7
2015-Feb-07 15:30N 59°27' E 024°46'0 0.0
2015-Feb-07 14:31N 59°27' E 024°46'0 0.0
2015-Feb-07 13:32N 59°27' E 024°46'0 0.0
2015-Feb-07 12:32N 59°27' E 024°46'1 0.6
2015-Feb-07 11:33N 59°27' E 024°47'0 0.3
2015-Feb-07 10:33N 59°27' E 024°46'0 0.3
2015-Feb-07 09:33N 59°27' E 024°46'0 0.0
2015-Feb-07 08:33N 59°27' E 024°46'0 0.0
2015-Feb-07 07:31N 59°27' E 024°46'0 0.4
2015-Feb-07 06:33N 59°27' E 024°46'0 0.0
2015-Feb-07 05:31N 59°27' E 024°46'0 0.0
2015-Feb-07 04:33N 59°27' E 024°46'0 0.0
2015-Feb-07 03:33N 59°27' E 024°46'0 0.0
2015-Feb-07 02:34N 59°27' E 024°46'0 0.0
2015-Feb-07 01:33N 59°27' E 024°46'0 0.0
2015-Feb-07 00:33N 59°27' E 024°46'0 0.0
2015-Feb-06 23:33N 59°27' E 024°46'0 0.3
2015-Feb-06 22:33N 59°27' E 024°47'7 6.8
2015-Feb-06 21:34N 59°30' E 024°34'3 0.3
2015-Feb-06 12:08N 59°30' E 024°29'4 7.3
2015-Feb-06 11:33N 59°30' E 024°37'6 5.3
2015-Feb-06 10:31N 59°27' E 024°46'0 0.0
2015-Feb-06 09:29N 59°27' E 024°46'0 0.0
2015-Feb-06 08:32N 59°27' E 024°46'0 0.0
2015-Feb-06 07:33N 59°27' E 024°46'0 0.0
2015-Feb-06 06:31N 59°27' E 024°46'0 0.0
2015-Feb-06 05:31N 59°27' E 024°46'0 0.0
2015-Feb-06 04:29N 59°27' E 024°46'0 0.0
2015-Feb-06 03:33N 59°27' E 024°46'0 0.0
2015-Feb-06 02:33N 59°27' E 024°46'3 3.2
2015-Feb-06 01:33N 59°30' E 024°49'1 0.8
2015-Feb-06 00:33N 59°29' E 024°48'4 4.2
2015-Feb-05 23:33N 59°33' E 024°43'5 5.4
2015-Feb-05 22:33N 59°38' E 024°46'8 7.9
2015-Feb-05 21:33N 59°32' E 024°56'  
Track history (hours):
 
Tides and Currents Weather Stations Pressure Air Temp Water Temp Dewpoint Dewpoint Depression Visibility Wind Speed Wind Dir Waves Ship Positions

H.kanter

Last reported at 2015-Feb-14 00:25 UTC. Time now 2015-Mar-04 07:02 UTC.
Position N 59°31' E 024°58'.
Warning: this ship's position is 18 days out of date.

Length 33 m; draft 4.7 m.

Type: Tug. MMSI: 276504000.

Date/timePositionNaut miles runAvg speedWind from/ knotsBaromVisibWave heightAir tempDewpointWater temp
2015-Feb-14 00:25N 59°31' E 024°58'1 0.6
2015-Feb-13 23:19N 59°30' E 024°58'1 1.3
2015-Feb-13 22:28N 59°31' E 024°58'  
2015-Feb-09 10:33N 59°34' E 024°53'10 9.7
2015-Feb-09 09:33N 59°38' E 024°35'8 1.1
2015-Feb-09 02:32N 59°30' E 024°31'8 8.1
2015-Feb-09 01:33N 59°29' E 024°46'2 2.1
2015-Feb-09 00:34N 59°27' E 024°46'0 0.0
2015-Feb-08 23:33N 59°27' E 024°46'0 0.0
2015-Feb-08 22:33N 59°27' E 024°46'0 0.0
2015-Feb-08 21:34N 59°27' E 024°46'0 0.0
2015-Feb-08 20:33N 59°27' E 024°46'0 0.0
2015-Feb-08 19:33N 59°27' E 024°46'0 0.0
2015-Feb-08 18:33N 59°27' E 024°46'0 0.0
2015-Feb-08 17:34N 59°27' E 024°46'0 0.1
2015-Feb-08 16:34N 59°27' E 024°46'0 0.3
2015-Feb-08 15:33N 59°27' E 024°47'0 0.3
2015-Feb-08 14:33N 59°27' E 024°46'0 0.2
2015-Feb-08 13:33N 59°27' E 024°46'0 0.3
2015-Feb-08 12:33N 59°27' E 024°46'0 0.0
2015-Feb-08 11:33N 59°27' E 024°46'0 0.2
2015-Feb-08 10:34N 59°27' E 024°46'0 0.2
2015-Feb-08 09:33N 59°27' E 024°46'0 0.1
2015-Feb-08 08:33N 59°27' E 024°46'0 0.1
2015-Feb-08 07:33N 59°27' E 024°46'0 0.1
2015-Feb-08 06:33N 59°27' E 024°46'0 0.0
2015-Feb-08 05:34N 59°27' E 024°46'0 0.0
2015-Feb-08 04:33N 59°27' E 024°46'0 0.0
2015-Feb-08 03:33N 59°27' E 024°46'0 0.0
2015-Feb-08 02:34N 59°27' E 024°46'0 0.0
2015-Feb-08 01:34N 59°27' E 024°46'0 0.0
2015-Feb-08 00:33N 59°27' E 024°46'0 0.0
2015-Feb-07 23:33N 59°27' E 024°46'0 0.0
2015-Feb-07 22:34N 59°27' E 024°46'0 0.0
2015-Feb-07 21:33N 59°27' E 024°46'0 0.0
2015-Feb-07 20:34N 59°27' E 024°46'5 4.8
2015-Feb-07 19:33N 59°29' E 024°38'2 1.7
2015-Feb-07 18:33N 59°28' E 024°39'1 0.8
2015-Feb-07 17:33N 59°27' E 024°38'6 5.5
2015-Feb-07 16:33N 59°31' E 024°45'5 4.7
2015-Feb-07 15:30N 59°27' E 024°46'0 0.0
2015-Feb-07 14:31N 59°27' E 024°46'0 0.0
2015-Feb-07 13:32N 59°27' E 024°46'0 0.0
2015-Feb-07 12:32N 59°27' E 024°46'1 0.6
2015-Feb-07 11:33N 59°27' E 024°47'0 0.3
2015-Feb-07 10:33N 59°27' E 024°46'0 0.3
2015-Feb-07 09:33N 59°27' E 024°46'0 0.0
2015-Feb-07 08:33N 59°27' E 024°46'0 0.0
2015-Feb-07 07:31N 59°27' E 024°46'0 0.4
2015-Feb-07 06:33N 59°27' E 024°46'0 0.0
2015-Feb-07 05:31N 59°27' E 024°46'0 0.0
2015-Feb-07 04:33N 59°27' E 024°46'0 0.0
2015-Feb-07 03:33N 59°27' E 024°46'0 0.0
2015-Feb-07 02:34N 59°27' E 024°46'0 0.0
2015-Feb-07 01:33N 59°27' E 024°46'0 0.0
2015-Feb-07 00:33N 59°27' E 024°46'0 0.0
2015-Feb-06 23:33N 59°27' E 024°46'0 0.3
2015-Feb-06 22:33N 59°27' E 024°47'7 6.8
2015-Feb-06 21:34N 59°30' E 024°34'3 0.3
2015-Feb-06 12:08N 59°30' E 024°29'4 7.3
2015-Feb-06 11:33N 59°30' E 024°37'6 5.3
2015-Feb-06 10:31N 59°27' E 024°46'0 0.0
2015-Feb-06 09:29N 59°27' E 024°46'0 0.0
2015-Feb-06 08:32N 59°27' E 024°46'0 0.0
2015-Feb-06 07:33N 59°27' E 024°46'0 0.0
2015-Feb-06 06:31N 59°27' E 024°46'0 0.0
2015-Feb-06 05:31N 59°27' E 024°46'0 0.0
2015-Feb-06 04:29N 59°27' E 024°46'0 0.0
2015-Feb-06 03:33N 59°27' E 024°46'0 0.0
2015-Feb-06 02:33N 59°27' E 024°46'3 3.2
2015-Feb-06 01:33N 59°30' E 024°49'1 0.8
2015-Feb-06 00:33N 59°29' E 024°48'4 4.2
2015-Feb-05 23:33N 59°33' E 024°43'5 5.4
2015-Feb-05 22:33N 59°38' E 024°46'8 7.9
2015-Feb-05 21:33N 59°32' E 024°56'  

Dump ship's entire track history